sensor_id;sensor_type;location;lat;lon;timestamp;pressure;altitude;pressure_sealevel;temperature;humidity
10466;BME280;5280;42.600;23.556;2022-10-26T00:00:10;93870.16;;;15.30;74.37
10466;BME280;5280;42.600;23.556;2022-10-26T00:02:36;93885.59;;;15.36;74.49
10466;BME280;5280;42.600;23.556;2022-10-26T00:05:04;93884.50;;;15.39;74.20
10466;BME280;5280;42.600;23.556;2022-10-26T00:07:31;93880.28;;;15.36;74.01
10466;BME280;5280;42.600;23.556;2022-10-26T00:09:59;93885.47;;;15.28;74.28
10466;BME280;5280;42.600;23.556;2022-10-26T00:12:26;93859.63;;;15.09;74.61
10466;BME280;5280;42.600;23.556;2022-10-26T00:14:53;93882.22;;;15.25;74.41
10466;BME280;5280;42.600;23.556;2022-10-26T00:17:19;93893.72;;;15.25;74.65
10466;BME280;5280;42.600;23.556;2022-10-26T00:19:46;93890.06;;;15.26;74.60
10466;BME280;5280;42.600;23.556;2022-10-26T00:22:13;93878.69;;;15.15;75.31
10466;BME280;5280;42.600;23.556;2022-10-26T00:24:40;93884.00;;;15.15;75.15
10466;BME280;5280;42.600;23.556;2022-10-26T00:27:08;93874.78;;;15.09;74.84
10466;BME280;5280;42.600;23.556;2022-10-26T00:29:35;93858.47;;;14.93;75.12
10466;BME280;5280;42.600;23.556;2022-10-26T00:32:01;93884.69;;;15.07;75.51
10466;BME280;5280;42.600;23.556;2022-10-26T00:34:28;93888.78;;;15.11;75.45
10466;BME280;5280;42.600;23.556;2022-10-26T00:36:55;93883.13;;;15.04;75.67
10466;BME280;5280;42.600;23.556;2022-10-26T00:39:22;93889.91;;;15.08;75.32
10466;BME280;5280;42.600;23.556;2022-10-26T00:41:49;93878.41;;;15.08;75.39
10466;BME280;5280;42.600;23.556;2022-10-26T00:44:55;93882.53;;;14.91;76.53
10466;BME280;5280;42.600;23.556;2022-10-26T00:47:29;93884.81;;;14.96;76.09
10466;BME280;5280;42.600;23.556;2022-10-26T00:49:58;93860.81;;;14.86;75.64
10466;BME280;5280;42.600;23.556;2022-10-26T00:52:28;93886.09;;;15.01;75.61
10466;BME280;5280;42.600;23.556;2022-10-26T00:54:55;93821.66;;;14.58;76.00
10466;BME280;5280;42.600;23.556;2022-10-26T00:57:25;93875.69;;;14.89;75.80
10466;BME280;5280;42.600;23.556;2022-10-26T00:59:55;93850.56;;;14.72;76.32
10466;BME280;5280;42.600;23.556;2022-10-26T01:02:23;93880.16;;;14.88;76.10
10466;BME280;5280;42.600;23.556;2022-10-26T01:04:51;93877.06;;;14.83;76.48
10466;BME280;5280;42.600;23.556;2022-10-26T01:07:19;93876.22;;;14.83;76.30
10466;BME280;5280;42.600;23.556;2022-10-26T01:09:46;93873.81;;;14.80;76.89
10466;BME280;5280;42.600;23.556;2022-10-26T01:12:13;93878.44;;;14.78;76.64
10466;BME280;5280;42.600;23.556;2022-10-26T01:14:40;93863.28;;;14.69;76.93
10466;BME280;5280;42.600;23.556;2022-10-26T01:17:19;93846.00;;;14.53;76.74
10466;BME280;5280;42.600;23.556;2022-10-26T01:20:17;93882.78;;;14.79;76.36
10466;BME280;5280;42.600;23.556;2022-10-26T01:22:50;93873.38;;;14.75;76.53
10466;BME280;5280;42.600;23.556;2022-10-26T01:25:35;93879.00;;;14.81;76.28
10466;BME280;5280;42.600;23.556;2022-10-26T01:28:12;93875.50;;;14.81;76.38
10466;BME280;5280;42.600;23.556;2022-10-26T01:30:47;93875.22;;;14.74;76.08
10466;BME280;5280;42.600;23.556;2022-10-26T01:33:29;93873.25;;;14.76;75.99
10466;BME280;5280;42.600;23.556;2022-10-26T01:36:02;93875.78;;;14.78;75.88
10466;BME280;5280;42.600;23.556;2022-10-26T01:38:41;93871.00;;;14.72;76.17
10466;BME280;5280;42.600;23.556;2022-10-26T01:41:11;93847.13;;;14.60;76.05
10466;BME280;5280;42.600;23.556;2022-10-26T01:43:43;93871.44;;;14.77;75.64
10466;BME280;5280;42.600;23.556;2022-10-26T01:46:14;93841.22;;;14.47;75.64
10466;BME280;5280;42.600;23.556;2022-10-26T01:48:43;93857.78;;;14.60;76.39
10466;BME280;5280;42.600;23.556;2022-10-26T01:51:12;93871.09;;;14.60;76.62
10466;BME280;5280;42.600;23.556;2022-10-26T01:53:44;93867.31;;;14.63;76.31
10466;BME280;5280;42.600;23.556;2022-10-26T01:56:14;93852.28;;;14.52;76.08
10466;BME280;5280;42.600;23.556;2022-10-26T01:59:05;93865.59;;;14.52;76.66
10466;BME280;5280;42.600;23.556;2022-10-26T02:02:08;93873.13;;;14.47;76.59
10466;BME280;5280;42.600;23.556;2022-10-26T02:04:45;93854.47;;;14.38;77.04
10466;BME280;5280;42.600;23.556;2022-10-26T02:07:20;93860.75;;;14.37;77.10
10466;BME280;5280;42.600;23.556;2022-10-26T02:09:58;93842.06;;;14.27;77.14
10466;BME280;5280;42.600;23.556;2022-10-26T02:12:32;93816.81;;;14.12;76.65
10466;BME280;5280;42.600;23.556;2022-10-26T02:15:04;93846.25;;;14.30;76.76
10466;BME280;5280;42.600;23.556;2022-10-26T02:17:38;93858.75;;;14.29;77.20
10466;BME280;5280;42.600;23.556;2022-10-26T02:20:10;93841.16;;;14.17;77.20
10466;BME280;5280;42.600;23.556;2022-10-26T02:22:44;93875.38;;;14.31;76.64
10466;BME280;5280;42.600;23.556;2022-10-26T02:25:16;93872.16;;;14.28;76.72
10466;BME280;5280;42.600;23.556;2022-10-26T02:27:46;93873.69;;;14.30;76.27
10466;BME280;5280;42.600;23.556;2022-10-26T02:30:14;93853.50;;;14.18;75.64
10466;BME280;5280;42.600;23.556;2022-10-26T02:32:46;93810.22;;;13.86;76.46
10466;BME280;5280;42.600;23.556;2022-10-26T02:35:15;93867.94;;;14.25;76.99
10466;BME280;5280;42.600;23.556;2022-10-26T02:37:45;93869.56;;;14.16;77.09
10466;BME280;5280;42.600;23.556;2022-10-26T02:40:16;93826.16;;;13.86;77.11
10466;BME280;5280;42.600;23.556;2022-10-26T02:42:44;93870.69;;;14.14;78.07
10466;BME280;5280;42.600;23.556;2022-10-26T02:45:15;93833.94;;;13.77;77.76
10466;BME280;5280;42.600;23.556;2022-10-26T02:47:44;93867.38;;;14.01;78.12
10466;BME280;5280;42.600;23.556;2022-10-26T02:50:12;93868.78;;;14.05;78.63
10466;BME280;5280;42.600;23.556;2022-10-26T02:52:44;93876.19;;;14.01;78.77
10466;BME280;5280;42.600;23.556;2022-10-26T02:55:18;93875.84;;;13.95;79.19
10466;BME280;5280;42.600;23.556;2022-10-26T02:57:49;93869.78;;;13.83;79.94
10466;BME280;5280;42.600;23.556;2022-10-26T03:00:18;93861.00;;;13.71;80.18
10466;BME280;5280;42.600;23.556;2022-10-26T03:02:51;93861.28;;;13.68;80.37
10466;BME280;5280;42.600;23.556;2022-10-26T03:05:20;93887.00;;;13.68;81.46
10466;BME280;5280;42.600;23.556;2022-10-26T03:07:48;93879.06;;;13.57;80.89
10466;BME280;5280;42.600;23.556;2022-10-26T03:10:15;93880.50;;;13.61;81.18
10466;BME280;5280;42.600;23.556;2022-10-26T03:12:42;93875.25;;;13.50;81.47
10466;BME280;5280;42.600;23.556;2022-10-26T03:15:09;93882.38;;;13.49;81.87
10466;BME280;5280;42.600;23.556;2022-10-26T03:17:36;93881.75;;;13.46;82.44
10466;BME280;5280;42.600;23.556;2022-10-26T03:20:06;93891.78;;;13.42;83.49
10466;BME280;5280;42.600;23.556;2022-10-26T03:22:33;93881.72;;;13.25;83.82
10466;BME280;5280;42.600;23.556;2022-10-26T03:25:00;93892.66;;;13.31;83.66
10466;BME280;5280;42.600;23.556;2022-10-26T03:27:27;93889.16;;;13.31;83.56
10466;BME280;5280;42.600;23.556;2022-10-26T03:29:54;93885.47;;;13.22;84.11
10466;BME280;5280;42.600;23.556;2022-10-26T03:32:22;93883.53;;;13.24;84.43
10466;BME280;5280;42.600;23.556;2022-10-26T03:34:49;93894.16;;;13.24;84.52
10466;BME280;5280;42.600;23.556;2022-10-26T03:37:17;93906.06;;;13.30;84.62
10466;BME280;5280;42.600;23.556;2022-10-26T03:39:43;93907.91;;;13.29;84.65
10466;BME280;5280;42.600;23.556;2022-10-26T03:42:10;93913.31;;;13.28;84.59
10466;BME280;5280;42.600;23.556;2022-10-26T03:44:37;93905.47;;;13.26;84.13
10466;BME280;5280;42.600;23.556;2022-10-26T03:47:04;93904.53;;;13.16;83.99
10466;BME280;5280;42.600;23.556;2022-10-26T03:49:31;93918.38;;;13.31;84.07
10466;BME280;5280;42.600;23.556;2022-10-26T03:51:57;93910.56;;;13.29;84.16
10466;BME280;5280;42.600;23.556;2022-10-26T03:54:26;93895.03;;;13.14;83.87
10466;BME280;5280;42.600;23.556;2022-10-26T03:56:53;93912.97;;;13.21;84.11
10466;BME280;5280;42.600;23.556;2022-10-26T03:59:19;93915.88;;;13.18;85.04
10466;BME280;5280;42.600;23.556;2022-10-26T04:01:46;93910.44;;;13.09;85.30
10466;BME280;5280;42.600;23.556;2022-10-26T04:04:13;93917.22;;;13.13;85.46
10466;BME280;5280;42.600;23.556;2022-10-26T04:06:40;93909.38;;;13.11;85.36
10466;BME280;5280;42.600;23.556;2022-10-26T04:09:06;93906.22;;;13.06;85.51
10466;BME280;5280;42.600;23.556;2022-10-26T04:11:35;93917.44;;;13.10;85.58
10466;BME280;5280;42.600;23.556;2022-10-26T04:14:01;93916.44;;;13.11;85.78
10466;BME280;5280;42.600;23.556;2022-10-26T04:16:28;93898.41;;;13.05;86.05
10466;BME280;5280;42.600;23.556;2022-10-26T04:18:55;93920.59;;;13.04;86.43
10466;BME280;5280;42.600;23.556;2022-10-26T04:21:22;93919.00;;;13.01;86.74
10466;BME280;5280;42.600;23.556;2022-10-26T04:23:49;93917.31;;;13.00;87.00
10466;BME280;5280;42.600;23.556;2022-10-26T04:26:15;93920.94;;;12.99;87.00
10466;BME280;5280;42.600;23.556;2022-10-26T04:28:43;93924.31;;;13.01;87.25
10466;BME280;5280;42.600;23.556;2022-10-26T04:31:10;93911.41;;;12.97;86.62
10466;BME280;5280;42.600;23.556;2022-10-26T04:33:37;93923.84;;;12.96;87.98
10466;BME280;5280;42.600;23.556;2022-10-26T04:36:04;93899.84;;;12.86;87.38
10466;BME280;5280;42.600;23.556;2022-10-26T04:38:31;93922.03;;;12.97;87.17
10466;BME280;5280;42.600;23.556;2022-10-26T04:40:58;93918.66;;;12.94;87.58
10466;BME280;5280;42.600;23.556;2022-10-26T04:43:25;93911.31;;;12.87;87.70
10466;BME280;5280;42.600;23.556;2022-10-26T04:45:55;93916.25;;;12.91;88.13
10466;BME280;5280;42.600;23.556;2022-10-26T04:48:22;93910.72;;;12.83;88.98
10466;BME280;5280;42.600;23.556;2022-10-26T04:50:49;93925.41;;;12.87;89.18
10466;BME280;5280;42.600;23.556;2022-10-26T04:53:16;93920.47;;;12.83;88.87
10466;BME280;5280;42.600;23.556;2022-10-26T04:55:43;93914.91;;;12.86;88.94
10466;BME280;5280;42.600;23.556;2022-10-26T04:58:10;93911.78;;;12.81;88.65
10466;BME280;5280;42.600;23.556;2022-10-26T05:00:37;93928.06;;;12.87;88.85
10466;BME280;5280;42.600;23.556;2022-10-26T05:03:06;93936.75;;;12.78;89.19
10466;BME280;5280;42.600;23.556;2022-10-26T05:05:34;93920.09;;;12.76;89.26
10466;BME280;5280;42.600;23.556;2022-10-26T05:08:02;93918.19;;;12.67;89.20
10466;BME280;5280;42.600;23.556;2022-10-26T05:10:33;93930.00;;;12.74;89.69
10466;BME280;5280;42.600;23.556;2022-10-26T05:13:00;93937.59;;;12.79;90.02
10466;BME280;5280;42.600;23.556;2022-10-26T05:15:27;93938.94;;;12.84;90.06
10466;BME280;5280;42.600;23.556;2022-10-26T05:17:55;93953.16;;;12.83;90.49
10466;BME280;5280;42.600;23.556;2022-10-26T05:20:24;93931.44;;;12.67;93.02
10466;BME280;5280;42.600;23.556;2022-10-26T05:22:54;93952.19;;;12.73;96.80
10466;BME280;5280;42.600;23.556;2022-10-26T05:25:21;93940.59;;;12.85;96.98
10466;BME280;5280;42.600;23.556;2022-10-26T05:27:48;93932.91;;;12.82;95.60
10466;BME280;5280;42.600;23.556;2022-10-26T05:30:15;93936.16;;;12.75;94.66
10466;BME280;5280;42.600;23.556;2022-10-26T05:32:42;93892.41;;;12.47;96.08
10466;BME280;5280;42.600;23.556;2022-10-26T05:35:08;93957.34;;;12.86;96.16
10466;BME280;5280;42.600;23.556;2022-10-26T05:37:36;93963.41;;;12.88;95.61
10466;BME280;5280;42.600;23.556;2022-10-26T05:40:04;93954.59;;;12.99;94.55
10466;BME280;5280;42.600;23.556;2022-10-26T05:42:31;93964.00;;;13.03;94.08
10466;BME280;5280;42.600;23.556;2022-10-26T05:44:58;93970.41;;;13.11;94.79
10466;BME280;5280;42.600;23.556;2022-10-26T05:47:25;93959.16;;;13.08;94.52
10466;BME280;5280;42.600;23.556;2022-10-26T05:49:51;93967.00;;;13.20;94.31
10466;BME280;5280;42.600;23.556;2022-10-26T05:52:18;93962.22;;;13.14;93.89
10466;BME280;5280;42.600;23.556;2022-10-26T05:54:46;93959.91;;;13.10;93.48
10466;BME280;5280;42.600;23.556;2022-10-26T05:57:13;93952.78;;;12.99;93.03
10466;BME280;5280;42.600;23.556;2022-10-26T05:59:41;93975.59;;;13.24;92.20
10466;BME280;5280;42.600;23.556;2022-10-26T06:02:13;93983.66;;;13.22;93.21
10466;BME280;5280;42.600;23.556;2022-10-26T06:04:45;93975.34;;;13.16;93.99
10466;BME280;5280;42.600;23.556;2022-10-26T06:07:15;93984.53;;;13.12;95.49
10466;BME280;5280;42.600;23.556;2022-10-26T06:09:46;93988.97;;;13.22;95.59
10466;BME280;5280;42.600;23.556;2022-10-26T06:12:14;93984.63;;;13.21;96.23
10466;BME280;5280;42.600;23.556;2022-10-26T06:14:41;93983.31;;;13.27;96.63
10466;BME280;5280;42.600;23.556;2022-10-26T06:17:27;93997.63;;;13.35;97.04
10466;BME280;5280;42.600;23.556;2022-10-26T06:20:08;93999.69;;;13.43;96.45
10466;BME280;5280;42.600;23.556;2022-10-26T06:22:48;93996.28;;;13.52;95.51
10466;BME280;5280;42.600;23.556;2022-10-26T06:25:28;93998.19;;;13.61;94.65
10466;BME280;5280;42.600;23.556;2022-10-26T06:28:06;94010.13;;;13.67;92.92
10466;BME280;5280;42.600;23.556;2022-10-26T06:30:40;94006.41;;;13.69;94.33
10466;BME280;5280;42.600;23.556;2022-10-26T06:33:08;94006.16;;;13.72;94.35
10466;BME280;5280;42.600;23.556;2022-10-26T06:35:41;94004.06;;;13.76;94.24
10466;BME280;5280;42.600;23.556;2022-10-26T06:38:17;94011.19;;;13.87;93.95
10466;BME280;5280;42.600;23.556;2022-10-26T06:40:49;94007.34;;;13.79;93.32
10466;BME280;5280;42.600;23.556;2022-10-26T06:43:23;93993.06;;;13.80;93.36
10466;BME280;5280;42.600;23.556;2022-10-26T06:45:55;94014.50;;;14.00;94.80
10466;BME280;5280;42.600;23.556;2022-10-26T06:48:26;94016.06;;;14.02;93.80
10466;BME280;5280;42.600;23.556;2022-10-26T06:50:55;94012.31;;;14.05;93.99
10466;BME280;5280;42.600;23.556;2022-10-26T06:53:26;94015.69;;;14.07;94.64
10466;BME280;5280;42.600;23.556;2022-10-26T06:55:58;93943.75;;;13.67;93.24
10466;BME280;5280;42.600;23.556;2022-10-26T06:58:28;94016.88;;;14.14;93.10
10466;BME280;5280;42.600;23.556;2022-10-26T07:00:56;94016.88;;;14.14;92.83
10466;BME280;5280;42.600;23.556;2022-10-26T07:03:23;94020.03;;;14.08;93.00
10466;BME280;5280;42.600;23.556;2022-10-26T07:05:50;94020.25;;;14.16;92.26
10466;BME280;5280;42.600;23.556;2022-10-26T07:08:17;94015.28;;;14.22;91.54
10466;BME280;5280;42.600;23.556;2022-10-26T07:10:45;94004.44;;;14.14;91.29
10466;BME280;5280;42.600;23.556;2022-10-26T07:13:13;93976.13;;;13.93;90.41
10466;BME280;5280;42.600;23.556;2022-10-26T07:15:40;94004.28;;;14.16;90.66
10466;BME280;5280;42.600;23.556;2022-10-26T07:18:08;94031.03;;;14.35;89.84
10466;BME280;5280;42.600;23.556;2022-10-26T07:20:36;94023.31;;;14.43;89.52
10466;BME280;5280;42.600;23.556;2022-10-26T07:23:04;94030.91;;;14.48;89.63
10466;BME280;5280;42.600;23.556;2022-10-26T07:25:34;94023.53;;;14.40;89.41
10466;BME280;5280;42.600;23.556;2022-10-26T07:28:04;94016.31;;;14.31;89.52
10466;BME280;5280;42.600;23.556;2022-10-26T07:30:32;93982.72;;;14.09;89.81
10466;BME280;5280;42.600;23.556;2022-10-26T07:32:59;94022.53;;;14.52;89.68
10466;BME280;5280;42.600;23.556;2022-10-26T07:35:27;94008.25;;;14.53;88.07
10466;BME280;5280;42.600;23.556;2022-10-26T07:37:57;94016.69;;;14.58;88.39
10466;BME280;5280;42.600;23.556;2022-10-26T07:40:24;94025.13;;;14.63;87.81
10466;BME280;5280;42.600;23.556;2022-10-26T07:42:51;94027.53;;;14.67;87.69
10466;BME280;5280;42.600;23.556;2022-10-26T07:45:18;94015.06;;;14.67;87.72
10466;BME280;5280;42.600;23.556;2022-10-26T07:47:46;94016.09;;;14.76;86.81
10466;BME280;5280;42.600;23.556;2022-10-26T07:50:14;94016.41;;;14.82;86.33
10466;BME280;5280;42.600;23.556;2022-10-26T07:52:41;94012.38;;;14.88;85.99
10466;BME280;5280;42.600;23.556;2022-10-26T07:55:09;94012.28;;;14.89;85.59
10466;BME280;5280;42.600;23.556;2022-10-26T07:57:36;94014.53;;;14.94;86.14
10466;BME280;5280;42.600;23.556;2022-10-26T08:00:04;94012.75;;;15.04;85.43
10466;BME280;5280;42.600;23.556;2022-10-26T08:02:32;94021.88;;;15.11;84.96
10466;BME280;5280;42.600;23.556;2022-10-26T08:05:00;94013.78;;;15.13;84.15
10466;BME280;5280;42.600;23.556;2022-10-26T08:07:27;94017.97;;;15.15;83.41
10466;BME280;5280;42.600;23.556;2022-10-26T08:09:54;94007.94;;;15.19;83.53
10466;BME280;5280;42.600;23.556;2022-10-26T08:12:21;93996.19;;;15.00;84.25
10466;BME280;5280;42.600;23.556;2022-10-26T08:14:48;94017.38;;;15.32;83.97
10466;BME280;5280;42.600;23.556;2022-10-26T08:17:14;93997.88;;;15.32;82.97
10466;BME280;5280;42.600;23.556;2022-10-26T08:19:41;94000.03;;;15.47;82.35
10466;BME280;5280;42.600;23.556;2022-10-26T08:22:09;93990.06;;;15.49;81.77
10466;BME280;5280;42.600;23.556;2022-10-26T08:24:36;94009.69;;;15.79;80.50
10466;BME280;5280;42.600;23.556;2022-10-26T08:27:03;94006.63;;;15.83;81.02
10466;BME280;5280;42.600;23.556;2022-10-26T08:29:30;93997.06;;;15.90;80.27
10466;BME280;5280;42.600;23.556;2022-10-26T08:31:57;93996.09;;;16.01;79.50
10466;BME280;5280;42.600;23.556;2022-10-26T08:34:24;94001.44;;;16.20;77.67
10466;BME280;5280;42.600;23.556;2022-10-26T08:36:50;93997.81;;;16.21;78.28
10466;BME280;5280;42.600;23.556;2022-10-26T08:39:19;93973.81;;;16.12;77.74
10466;BME280;5280;42.600;23.556;2022-10-26T08:41:47;94014.22;;;16.46;77.82
10466;BME280;5280;42.600;23.556;2022-10-26T08:44:24;93980.53;;;16.35;76.91
10466;BME280;5280;42.600;23.556;2022-10-26T08:46:54;93993.47;;;16.68;75.00
10466;BME280;5280;42.600;23.556;2022-10-26T08:49:25;93990.06;;;16.76;74.48
10466;BME280;5280;42.600;23.556;2022-10-26T08:51:56;93991.44;;;16.90;72.50
10466;BME280;5280;42.600;23.556;2022-10-26T08:54:33;94000.81;;;17.13;72.59
10466;BME280;5280;42.600;23.556;2022-10-26T08:57:12;94003.28;;;17.24;70.43
10466;BME280;5280;42.600;23.556;2022-10-26T08:59:46;93997.63;;;17.37;71.19
10466;BME280;5280;42.600;23.556;2022-10-26T09:02:16;94008.53;;;17.53;70.44
10466;BME280;5280;42.600;23.556;2022-10-26T09:04:43;94001.88;;;17.67;68.55
10466;BME280;5280;42.600;23.556;2022-10-26T09:07:17;94015.88;;;17.78;65.77
10466;BME280;5280;42.600;23.556;2022-10-26T09:09:55;94004.19;;;17.79;66.41
10466;BME280;5280;42.600;23.556;2022-10-26T09:12:27;94000.19;;;17.93;64.40
10466;BME280;5280;42.600;23.556;2022-10-26T09:15:07;93988.25;;;17.87;64.22
10466;BME280;5280;42.600;23.556;2022-10-26T09:17:41;93999.19;;;18.12;61.54
10466;BME280;5280;42.600;23.556;2022-10-26T09:20:42;94011.91;;;18.27;61.04
10466;BME280;5280;42.600;23.556;2022-10-26T09:23:26;94001.41;;;18.16;59.90
10466;BME280;5280;42.600;23.556;2022-10-26T09:25:59;94016.19;;;18.38;55.71
10466;BME280;5280;42.600;23.556;2022-10-26T09:28:29;94003.25;;;18.51;55.62
10466;BME280;5280;42.600;23.556;2022-10-26T09:30:58;94013.53;;;18.56;56.72
10466;BME280;5280;42.600;23.556;2022-10-26T09:33:28;94007.06;;;18.48;55.69
10466;BME280;5280;42.600;23.556;2022-10-26T09:35:58;94010.84;;;18.73;54.39
10466;BME280;5280;42.600;23.556;2022-10-26T09:38:28;94010.69;;;18.75;53.12
10466;BME280;5280;42.600;23.556;2022-10-26T09:41:01;93995.47;;;18.75;52.38
10466;BME280;5280;42.600;23.556;2022-10-26T09:43:34;94002.66;;;18.92;52.01
10466;BME280;5280;42.600;23.556;2022-10-26T09:46:04;94002.47;;;18.94;52.58
10466;BME280;5280;42.600;23.556;2022-10-26T09:48:35;94009.38;;;18.97;52.02
10466;BME280;5280;42.600;23.556;2022-10-26T09:51:04;94007.81;;;18.94;51.61
10466;BME280;5280;42.600;23.556;2022-10-26T09:53:31;94011.09;;;19.06;52.98
10466;BME280;5280;42.600;23.556;2022-10-26T09:56:03;93997.66;;;18.98;53.21
10466;BME280;5280;42.600;23.556;2022-10-26T09:58:36;94000.72;;;19.03;51.80
10466;BME280;5280;42.600;23.556;2022-10-26T10:01:06;93972.00;;;18.95;52.22
10466;BME280;5280;42.600;23.556;2022-10-26T10:03:32;93969.31;;;18.95;52.37
10466;BME280;5280;42.600;23.556;2022-10-26T10:06:15;93992.00;;;19.09;51.42
10466;BME280;5280;42.600;23.556;2022-10-26T10:08:42;93977.94;;;19.07;51.36
10466;BME280;5280;42.600;23.556;2022-10-26T10:11:13;93989.06;;;19.20;51.19
10466;BME280;5280;42.600;23.556;2022-10-26T10:13:42;93983.38;;;19.23;50.47
10466;BME280;5280;42.600;23.556;2022-10-26T10:16:18;93973.25;;;19.09;51.75
10466;BME280;5280;42.600;23.556;2022-10-26T10:18:52;93956.16;;;19.02;50.98
10466;BME280;5280;42.600;23.556;2022-10-26T10:21:19;93972.66;;;19.23;50.02
10466;BME280;5280;42.600;23.556;2022-10-26T10:23:48;93961.22;;;19.13;51.05
10466;BME280;5280;42.600;23.556;2022-10-26T10:26:20;93978.97;;;19.14;51.02
10466;BME280;5280;42.600;23.556;2022-10-26T10:28:55;93955.53;;;19.08;50.47
10466;BME280;5280;42.600;23.556;2022-10-26T10:31:26;93962.91;;;19.14;49.63
10466;BME280;5280;42.600;23.556;2022-10-26T10:33:54;93969.00;;;19.24;49.31
10466;BME280;5280;42.600;23.556;2022-10-26T10:36:22;93966.44;;;19.14;50.53
10466;BME280;5280;42.600;23.556;2022-10-26T10:38:52;93969.09;;;19.14;50.92
10466;BME280;5280;42.600;23.556;2022-10-26T10:41:24;93967.63;;;19.20;49.12
10466;BME280;5280;42.600;23.556;2022-10-26T10:43:55;93967.00;;;19.26;49.20
10466;BME280;5280;42.600;23.556;2022-10-26T10:46:25;93946.19;;;19.20;49.39
10466;BME280;5280;42.600;23.556;2022-10-26T10:48:59;93943.88;;;19.25;49.06
10466;BME280;5280;42.600;23.556;2022-10-26T10:51:28;93953.13;;;19.30;47.49
10466;BME280;5280;42.600;23.556;2022-10-26T10:53:56;93957.38;;;19.41;49.04
10466;BME280;5280;42.600;23.556;2022-10-26T10:56:37;93949.03;;;19.44;49.61
10466;BME280;5280;42.600;23.556;2022-10-26T10:59:33;93945.44;;;19.61;48.93
10466;BME280;5280;42.600;23.556;2022-10-26T11:02:22;93932.88;;;19.62;48.57
10466;BME280;5280;42.600;23.556;2022-10-26T11:05:11;93930.84;;;19.64;49.10
10466;BME280;5280;42.600;23.556;2022-10-26T11:07:50;93926.88;;;19.76;48.07
10466;BME280;5280;42.600;23.556;2022-10-26T11:10:20;93937.47;;;19.86;48.56
10466;BME280;5280;42.600;23.556;2022-10-26T11:12:54;93947.19;;;19.95;47.85
10466;BME280;5280;42.600;23.556;2022-10-26T11:15:25;93916.66;;;19.80;48.43
10466;BME280;5280;42.600;23.556;2022-10-26T11:18:01;93946.56;;;20.01;47.90
10466;BME280;5280;42.600;23.556;2022-10-26T11:20:35;93934.78;;;19.94;48.74
10466;BME280;5280;42.600;23.556;2022-10-26T11:23:09;93923.22;;;19.93;48.19
10466;BME280;5280;42.600;23.556;2022-10-26T11:25:41;93940.88;;;20.12;47.75
10466;BME280;5280;42.600;23.556;2022-10-26T11:28:15;93938.47;;;19.93;48.30
10466;BME280;5280;42.600;23.556;2022-10-26T11:30:48;93937.34;;;20.11;47.70
10466;BME280;5280;42.600;23.556;2022-10-26T11:33:21;93936.50;;;20.11;47.58
10466;BME280;5280;42.600;23.556;2022-10-26T11:35:55;93929.13;;;20.13;47.05
10466;BME280;5280;42.600;23.556;2022-10-26T11:38:29;93937.16;;;20.13;46.47
10466;BME280;5280;42.600;23.556;2022-10-26T11:41:02;93937.84;;;20.15;47.19
10466;BME280;5280;42.600;23.556;2022-10-26T11:43:37;93929.81;;;20.23;47.42
10466;BME280;5280;42.600;23.556;2022-10-26T11:46:11;93924.78;;;20.12;47.16
10466;BME280;5280;42.600;23.556;2022-10-26T11:48:43;93923.28;;;20.26;47.13
10466;BME280;5280;42.600;23.556;2022-10-26T11:51:17;93923.13;;;20.27;47.30
10466;BME280;5280;42.600;23.556;2022-10-26T11:53:47;93924.44;;;20.23;45.63
10466;BME280;5280;42.600;23.556;2022-10-26T11:56:21;93920.81;;;20.32;45.92
10466;BME280;5280;42.600;23.556;2022-10-26T11:58:52;93920.81;;;20.32;45.42
10466;BME280;5280;42.600;23.556;2022-10-26T12:01:20;93922.16;;;20.36;45.89
10466;BME280;5280;42.600;23.556;2022-10-26T12:03:51;93920.44;;;20.27;46.23
10466;BME280;5280;42.600;23.556;2022-10-26T12:06:24;93925.16;;;20.33;46.32
10466;BME280;5280;42.600;23.556;2022-10-26T12:08:58;93891.91;;;20.26;46.77
10466;BME280;5280;42.600;23.556;2022-10-26T12:11:35;93909.72;;;20.35;46.25
10466;BME280;5280;42.600;23.556;2022-10-26T12:14:11;93915.44;;;20.40;46.01
10466;BME280;5280;42.600;23.556;2022-10-26T12:16:47;93899.78;;;20.28;46.34
10466;BME280;5280;42.600;23.556;2022-10-26T12:19:20;93919.41;;;20.28;46.71
10466;BME280;5280;42.600;23.556;2022-10-26T12:21:48;93913.38;;;20.26;46.98
10466;BME280;5280;42.600;23.556;2022-10-26T12:24:27;93907.66;;;20.29;47.18
10466;BME280;5280;42.600;23.556;2022-10-26T12:26:54;93904.31;;;20.27;47.00
10466;BME280;5280;42.600;23.556;2022-10-26T12:29:47;93892.22;;;20.23;45.84
10466;BME280;5280;42.600;23.556;2022-10-26T12:35:41;93902.81;;;20.16;46.01
10466;BME280;5280;42.600;23.556;2022-10-26T12:41:36;93903.63;;;20.25;46.86
10466;BME280;5280;42.600;23.556;2022-10-26T12:44:33;93905.50;;;20.33;46.64
10466;BME280;5280;42.600;23.556;2022-10-26T12:47:02;93910.84;;;20.25;46.88
10466;BME280;5280;42.600;23.556;2022-10-26T12:52:31;93874.44;;;20.14;46.72
10466;BME280;5280;42.600;23.556;2022-10-26T13:04:05;93885.16;;;19.90;46.58
10466;BME280;5280;42.600;23.556;2022-10-26T13:06:47;93911.34;;;20.20;46.35
10466;BME280;5280;42.600;23.556;2022-10-26T13:09:20;93899.44;;;20.14;46.84
10466;BME280;5280;42.600;23.556;2022-10-26T13:11:51;93910.00;;;20.24;46.34
10466;BME280;5280;42.600;23.556;2022-10-26T13:14:24;93915.53;;;20.23;46.29
10466;BME280;5280;42.600;23.556;2022-10-26T13:16:52;93907.97;;;20.18;45.44
10466;BME280;5280;42.600;23.556;2022-10-26T13:19:25;93913.53;;;20.16;45.49
10466;BME280;5280;42.600;23.556;2022-10-26T13:21:57;93912.84;;;20.23;44.56
10466;BME280;5280;42.600;23.556;2022-10-26T13:24:27;93910.50;;;20.19;45.15
10466;BME280;5280;42.600;23.556;2022-10-26T13:27:22;93919.72;;;20.09;45.71
10466;BME280;5280;42.600;23.556;2022-10-26T13:30:17;93908.47;;;20.13;45.40
10466;BME280;5280;42.600;23.556;2022-10-26T13:32:48;93920.41;;;20.11;44.20
10466;BME280;5280;42.600;23.556;2022-10-26T13:35:19;93903.28;;;20.04;43.95
10466;BME280;5280;42.600;23.556;2022-10-26T13:37:48;93917.34;;;19.98;44.71